Data for 04/17/2017

Time Sea-Level Adjusted Pressure Absolute Pressure Temperature Relative Humidity Dew Point   
(mb) (inHg) (mb) (inHg) (C) (F) (%) (C) (F)
00:05 1016 30 845 24.95 4.4 40 45 -6.5 20.2
00:10 1016 30 845 24.95 4.3 39.7 45 -6.6 20.2
00:15 1016 30 845 24.95 4.1 39.4 45 -6.7 19.9
00:20 1016 30 845 24.95 4 39.2 45 -6.7 19.9
00:25 1016 30 845 24.95 3.9 39 46 -6.8 19.8
00:30 1015 29.97 845 24.95 3.8 38.8 46 -6.8 19.7
00:35 1015 29.97 845 24.95 3.8 38.8 45 -7 19.4
00:40 1015 29.97 845 24.95 3.7 38.6 45 -7 19.3
00:45 1015 29.97 845 24.95 3.5 38.4 46 -7.2 19.1
00:50 1015 29.97 844 24.92 3.4 38.1 46 -7.2 19.1
00:55 1015 29.97 844 24.92 3.4 38.1 46 -7 19.3
01:00 1015 29.97 844 24.92 3.4 38 46 -7.2 19
01:05 1015 29.97 844 24.92 3.3 37.9 46 -7.2 19.1
01:10 1015 29.97 844 24.92 3.2 37.8 46 -7.2 19
01:15 1015 29.97 844 24.92 3.2 37.8 46 -7.3 18.8
01:20 1014 29.94 844 24.92 3.2 37.8 46 -7.2 19
01:25 1015 29.97 844 24.92 3.2 37.8 46 -7.3 18.9
01:30 1014 29.94 844 24.92 3.2 37.7 47 -7.1 19.1
01:35 1014 29.94 843 24.89 3.2 37.7 47 -7.2 19.1
01:40 1014 29.94 843 24.89 3 37.4 47 -7.2 19
01:45 1014 29.94 843 24.89 3 37.5 47 -7.2 19
01:50 1014 29.94 843 24.89 3 37.4 47 -7.3 18.8
01:55 1014 29.94 843 24.89 3.1 37.6 46 -7.4 18.7
02:00 1014 29.94 843 24.89 3.1 37.5 46 -7.4 18.7
02:05 1014 29.94 843 24.89 2.9 37.3 47 -7.3 18.8
02:10 1014 29.94 843 24.89 2.9 37.2 47 -7.4 18.8
02:15 1014 29.94 843 24.89 2.8 37.1 47 -7.3 18.8
02:20 1014 29.94 843 24.89 3 37.3 47 -7.4 18.7
02:25 1014 29.94 843 24.89 3 37.4 46 -7.4 18.7
02:30 1014 29.94 843 24.89 3 37.4 46 -7.4 18.7
02:35 1013 29.91 843 24.89 3.1 37.5 46 -7.4 18.7
02:40 1013 29.91 843 24.89 3.3 37.9 45 -7.4 18.6
02:45 1013 29.91 842 24.86 3.5 38.3 45 -7.4 18.7
02:50 1013 29.91 842 24.86 3.5 38.4 45 -7.2 19
02:55 1013 29.91 842 24.86 3.6 38.4 45 -7.3 18.9
03:00 1013 29.91 842 24.86 3.5 38.3 46 -7.2 19.1
03:05 1013 29.91 842 24.86 3.4 38.1 46 -7.2 19.1
03:10 1013 29.91 842 24.86 3.2 37.8 46 -7.2 19
03:15 1013 29.91 842 24.86 3.2 37.8 46 -7.2 19
03:20 1013 29.91 842 24.86 3.2 37.8 47 -7.1 19.2
03:25 1013 29.91 842 24.86 3.1 37.5 47 -7.1 19.2
03:30 1013 29.91 842 24.86 3 37.5 47 -7.2 19.1
03:35 1013 29.91 842 24.86 3 37.4 47 -7.1 19.1
03:40 1013 29.91 842 24.86 3 37.4 47 -7.2 19.1
03:45 1012 29.88 842 24.86 3.2 37.7 46 -7.3 18.9
03:50 1012 29.88 842 24.86 3.3 37.9 46 -7.1 19.1
03:55 1012 29.88 842 24.86 3.3 37.9 47 -7 19.3
04:00 1012 29.88 841 24.83 3.4 38.1 46 -7.1 19.3
04:05 1012 29.88 841 24.83 3.4 38.2 46 -7.1 19.3
04:10 1012 29.88 841 24.83 3.3 38 47 -7 19.5
04:15 1012 29.88 841 24.83 3.4 38.1 46 -7.1 19.3
04:20 1012 29.88 841 24.83 3.5 38.2 47 -6.8 19.7
04:25 1012 29.88 841 24.83 3.3 38 47 -6.9 19.6
04:30 1012 29.88 841 24.83 3.4 38 47 -6.9 19.6
04:35 1012 29.88 841 24.83 3.4 38.1 47 -6.8 19.7
04:40 1011 29.85 841 24.83 3.6 38.4 46 -6.9 19.6
04:45 1011 29.85 840 24.81 3.8 38.8 46 -6.8 19.7
04:50 1011 29.85 841 24.83 3.7 38.7 47 -6.6 20.1
04:55 1011 29.85 840 24.81 3.6 38.5 47 -6.7 20
05:00 1011 29.85 840 24.81 3.5 38.3 48 -6.5 20.3
05:05 1011 29.85 840 24.81 3.5 38.3 48 -6.6 20.1
05:10 1011 29.85 840 24.81 3.5 38.4 48 -6.5 20.3
05:15 1011 29.85 840 24.81 3.5 38.3 47 -6.6 20
05:20 1011 29.85 840 24.81 3.6 38.5 48 -6.4 20.4
05:25 1011 29.85 840 24.81 3.5 38.3 49 -6.3 20.7
05:30 1010 29.83 840 24.81 3.5 38.2 48 -6.4 20.5
05:35 1010 29.83 840 24.81 3.6 38.5 48 -6.4 20.5
05:40 1010 29.83 840 24.81 3.8 38.9 48 -6.2 20.8
05:45 1010 29.83 839 24.78 3.9 39 48 -6.2 20.9
05:50 1010 29.83 839 24.78 3.8 38.9 48 -6.2 20.8
05:55 1010 29.83 839 24.78 3.8 38.8 48 -6.2 20.8
06:00 1010 29.83 839 24.78 4 39.2 47 -6.2 20.8
06:05 1010 29.83 839 24.78 4.2 39.5 47 -6.2 20.8
06:10 1010 29.83 839 24.78 4.2 39.5 47 -6.2 20.9
06:15 1010 29.83 839 24.78 4.3 39.7 46 -6.2 20.8
06:20 1010 29.83 839 24.78 4.4 40 46 -6.2 20.8
06:25 1010 29.83 839 24.78 4.3 39.8 47 -6 21.1
06:30 1010 29.83 839 24.78 4.4 39.9 47 -6.1 21.1
06:35 1010 29.83 839 24.78 4.5 40 47 -6 21.3
06:40 1010 29.83 839 24.78 4.5 40.1 47 -5.9 21.3
06:45 1010 29.83 839 24.78 4.6 40.2 48 -5.6 21.8
06:50 1010 29.83 839 24.78 4.5 40.2 48 -5.6 21.9
06:55 1010 29.83 839 24.78 4.4 39.8 48 -5.6 21.9
07:00 1010 29.83 839 24.78 4.6 40.3 48 -5.4 22.2
07:05 1009 29.8 839 24.78 4.9 40.8 48 -5.2 22.6
07:10 1009 29.8 839 24.78 5.1 41.2 48 -5.1 22.9
07:15 1009 29.8 839 24.78 5.2 41.4 48 -4.9 23.1
07:20 1010 29.83 839 24.78 5.2 41.4 48 -4.9 23.2
07:25 1010 29.83 839 24.78 5.3 41.6 48 -4.9 23.3
07:30 1010 29.83 839 24.78 5.6 42 47 -4.8 23.3
07:35 1010 29.83 839 24.78 6 42.9 46 -4.6 23.7
07:40 1010 29.83 839 24.78 6.5 43.7 45 -4.4 24
07:45 1010 29.83 839 24.78 6.8 44.2 45 -4.3 24.2
07:50 1010 29.83 839 24.78 7.1 44.8 44 -4.2 24.4
07:55 1010 29.83 840 24.81 7.4 45.3 44 -4.1 24.6
08:00 1011 29.85 840 24.81 7.7 45.8 47 -3 26.6
08:05 1011 29.85 840 24.81 6.8 44.3 54 -1.9 28.6
08:10 1011 29.85 840 24.81 5.9 42.6 59 -1.6 29.1
08:15 1011 29.85 841 24.83 5.6 42 62 -1.2 29.9
08:20 1011 29.85 841 24.83 4.8 40.7 71 0.1 32.1
08:25 1011 29.85 841 24.83 3.8 38.9 75 -0.1 31.8
08:30 1011 29.85 841 24.83 3.5 38.3 76 -0.4 31.4
08:35 1011 29.85 841 24.83 3.4 38.2 77 -0.3 31.5
08:40 1011 29.85 841 24.83 3.8 38.8 77 0.2 32.3
08:45 1012 29.88 841 24.83 4.1 39.4 76 0.2 32.3
08:50 1012 29.88 841 24.83 4.4 40 74 0.2 32.3
08:55 1012 29.88 841 24.83 4.9 40.9 73 0.5 32.9
09:00 1012 29.88 841 24.83 5.4 41.7 68 -0.1 31.9
09:05 1012 29.88 841 24.83 5.5 41.9 69 0.3 32.5
09:10 1012 29.88 841 24.83 5.7 42.3 68 0.2 32.4
09:15 1012 29.88 841 24.83 5.9 42.6 69 0.6 33
09:20 1012 29.88 841 24.83 6 42.9 67 0.4 32.7
09:25 1012 29.88 841 24.83 5.8 42.4 67 0.1 32.2
09:30 1012 29.88 841 24.83 5.2 41.4 71 0.4 32.7
09:35 1012 29.88 841 24.83 5.1 41.2 73 0.7 33.3
09:40 1012 29.88 841 24.83 5.1 41.3 75 1 33.8
09:45 1012 29.88 841 24.83 5.3 41.6 74 1 33.9
09:50 1012 29.88 841 24.83 5.4 41.7 73 1 33.8
09:55 1011 29.85 841 24.83 5.4 41.8 72 0.8 33.4
10:00 1011 29.85 841 24.83 5.5 42 72 1 33.7
10:05 1011 29.85 841 24.83 5.7 42.3 72 1.1 34
10:10 1011 29.85 841 24.83 6 42.8 72 1.3 34.3
10:15 1011 29.85 840 24.81 6.4 43.5 72 1.7 35
10:20 1011 29.85 840 24.81 6.8 44.2 67 1.2 34.1
10:25 1011 29.85 840 24.81 6.8 44.2 68 1.3 34.3
10:30 1011 29.85 841 24.83 6.9 44.4 65 0.8 33.5
10:35 1011 29.85 841 24.83 6.8 44.2 71 1.9 35.4
10:40 1011 29.85 841 24.83 6.7 44 70 1.5 34.8
10:45 1011 29.85 841 24.83 6.7 44.1 70 1.7 35
10:50 1012 29.88 841 24.83 6.5 43.7 72 1.9 35.5
10:55 1012 29.88 841 24.83 6.1 43 77 2.3 36.2
11:00 1012 29.88 841 24.83 5.7 42.3 78 2.2 36
11:05 1012 29.88 841 24.83 5.6 42.1 78 2 35.7
11:10 1012 29.88 841 24.83 5.5 41.9 78 2 35.5
11:15 1012 29.88 841 24.83 5.5 41.9 76 1.7 35
11:20 1012 29.88 841 24.83 4.9 40.8 81 1.8 35.3
11:25 1012 29.88 842 24.86 4.6 40.3 81 1.6 35
11:30 1013 29.91 842 24.86 4.6 40.3 80 1.4 34.6
11:35 1013 29.91 842 24.86 4.8 40.7 81 1.9 35.4
11:40 1013 29.91 842 24.86 5 40.9 78 1.5 34.7
11:45 1013 29.91 842 24.86 5.2 41.3 81 2.1 35.8
11:50 1013 29.91 842 24.86 5 41 78 1.4 34.6
11:55 1013 29.91 842 24.86 4.6 40.2 78 1.1 34
12:00 1013 29.91 842 24.86 4.5 40.1 79 1.2 34.2
12:05 1013 29.91 842 24.86 4.6 40.3 75 0.5 33
12:10 1013 29.91 842 24.86 4.4 39.8 78 0.9 33.7
12:15 1013 29.91 842 24.86 3.9 39 81 0.9 33.6
12:20 1013 29.91 842 24.86 3.6 38.5 82 0.8 33.5
12:25 1013 29.91 842 24.86 3.3 38 84 0.8 33.5
12:30 1013 29.91 842 24.86 3.3 38 85 1 33.9
12:35 1013 29.91 842 24.86 3.3 38 84 0.8 33.5
12:40 1012 29.88 842 24.86 3.4 38.2 83 0.8 33.5
12:45 1013 29.91 842 24.86 3.8 38.8 81 0.8 33.4
12:50 1013 29.91 842 24.86 4.1 39.4 80 0.9 33.6
12:55 1013 29.91 842 24.86 4.3 39.7 79 1 33.8
13:00 1013 29.91 842 24.86 4.5 40.1 79 1.1 34
13:05 1013 29.91 842 24.86 4.6 40.3 76 0.8 33.4
13:10 1013 29.91 842 24.86 4.8 40.6 73 0.4 32.8
13:15 1013 29.91 842 24.86 5.1 41.2 74 0.9 33.7
13:20 1013 29.91 842 24.86 5.5 41.9 68 -0 32
13:25 1013 29.91 842 24.86 6.4 43.6 65 0.3 32.6
13:30 1013 29.91 842 24.86 7.6 45.7 63 1.2 34.1
13:35 1013 29.91 842 24.86 8.5 47.4 62 1.7 35
13:40 1013 29.91 842 24.86 8.7 47.7 58 1.1 33.9
13:45 1013 29.91 842 24.86 8.8 47.8 59 1.3 34.3
13:50 1013 29.91 842 24.86 8.4 47.2 60 1.2 34.2
13:55 1013 29.91 842 24.86 8.2 46.8 58 0.6 33
14:00 1013 29.91 842 24.86 8.1 46.6 59 0.6 33
14:05 1013 29.91 842 24.86 8.1 46.5 59 0.5 32.9
14:10 1013 29.91 843 24.89 7.9 46.3 58 0.3 32.5
14:15 1014 29.94 843 24.89 7.6 45.6 60 0.3 32.6
14:20 1014 29.94 843 24.89 7.2 44.9 59 -0.2 31.7
14:25 1014 29.94 843 24.89 7.2 45 61 0.2 32.3
14:30 1014 29.94 843 24.89 7.2 44.9 64 0.8 33.4
14:35 1014 29.94 843 24.89 6.9 44.4 67 1.2 34.2
14:40 1014 29.94 843 24.89 6.7 44 65 0.7 33.2
14:45 1014 29.94 843 24.89 6.5 43.7 65 0.4 32.7
14:50 1014 29.94 843 24.89 6.5 43.7 65 0.4 32.8
14:55 1014 29.94 843 24.89 6.5 43.7 67 0.9 33.5
15:00 1014 29.94 843 24.89 6.6 43.8 66 0.7 33.3
15:05 1014 29.94 843 24.89 6.8 44.2 65 0.7 33.2
15:10 1014 29.94 843 24.89 7.6 45.7 62 0.8 33.5
15:15 1014 29.94 843 24.89 8.6 47.5 55 0.1 32.2
15:20 1014 29.94 843 24.89 8.5 47.4 54 -0.1 31.8
15:25 1014 29.94 843 24.89 9.4 48.9 49 -0.6 30.9
15:30 1014 29.94 843 24.89 10.1 50.2 48 -0.4 31.2
15:35 1014 29.94 843 24.89 10.4 50.8 45 -1.1 30.1
15:40 1014 29.94 843 24.89 10.3 50.5 47 -0.4 31.3
15:45 1014 29.94 843 24.89 9.4 49 52 0.2 32.3
15:50 1014 29.94 843 24.89 9.2 48.6 50 -0.5 31
15:55 1014 29.94 843 24.89 9.6 49.3 47 -1 30.1
16:00 1014 29.94 843 24.89 10.8 51.5 40 -2.2 28.1
16:05 1014 29.94 843 24.89 11.5 52.6 37 -2.6 27.4
16:10 1014 29.94 843 24.89 11.4 52.4 36 -3.3 26.1
16:15 1014 29.94 843 24.89 10.7 51.2 38 -3 26.6
16:20 1014 29.94 843 24.89 10.7 51.2 38 -3 26.6
16:25 1014 29.94 843 24.89 11.4 52.5 35 -3.3 26
16:30 1014 29.94 843 24.89 11.6 52.8 34 -3.8 25.2
16:35 1014 29.94 843 24.89 11.5 52.7 32 -4.6 23.7
16:40 1014 29.94 843 24.89 11.2 52.1 34 -4.2 24.5
16:45 1014 29.94 843 24.89 11 51.9 34 -4 24.8
16:50 1014 29.94 843 24.89 10.8 51.5 33 -4.8 23.3
16:55 1014 29.94 843 24.89 11.4 52.4 32 -4.6 23.7
17:00 1014 29.94 843 24.89 11.9 53.4 32 -4.2 24.4
17:05 1014 29.94 844 24.92 11.9 53.4 30 -5 23.1
17:10 1015 29.97 844 24.92 11.5 52.7 32 -4.7 23.5
17:15 1015 29.97 844 24.92 11.1 52 32 -4.7 23.5
17:20 1015 29.97 844 24.92 11 51.8 35 -4 24.9
17:25 1015 29.97 844 24.92 10.9 51.7 33 -4.6 23.8
17:30 1015 29.97 844 24.92 10.8 51.5 32 -5 23
17:35 1015 29.97 844 24.92 10.8 51.4 34 -4.5 23.9
17:40 1015 29.97 844 24.92 10.7 51.3 35 -4 24.9
17:45 1015 29.97 844 24.92 10.6 51 33 -5.2 22.7
17:50 1015 29.97 844 24.92 10.6 51.1 33 -5 23.1
17:55 1015 29.97 844 24.92 10.6 51 33 -5 22.9
18:00 1015 29.97 844 24.92 10.6 51 33 -5.1 22.9
18:05 1015 29.97 844 24.92 10.6 51 34 -4.7 23.5
18:10 1015 29.97 844 24.92 10.5 50.8 35 -4.3 24.3
18:15 1015 29.97 844 24.92 10.4 50.6 37 -3.6 25.5
18:20 1015 29.97 844 24.92 10.3 50.5 38 -3.3 26
18:25 1015 29.97 844 24.92 10.2 50.4 38 -3.4 25.9
18:30 1015 29.97 844 24.92 10.2 50.3 35 -4.6 23.8
18:35 1015 29.97 844 24.92 10.2 50.4 36 -4.1 24.7
18:40 1015 29.97 845 24.95 10.2 50.3 36 -4.2 24.5
18:45 1015 29.97 845 24.95 10.1 50.1 37 -4.1 24.7
18:50 1015 29.97 845 24.95 10 50 36 -4.4 24
18:55 1015 29.97 845 24.95 10 49.9 37 -4 24.7
19:00 1016 30 845 24.95 9.9 49.8 36 -4.3 24.2
19:05 1016 30 845 24.95 9.8 49.7 37 -4.3 24.3
19:10 1016 30 845 24.95 9.7 49.5 36 -4.5 23.9
19:15 1016 30 845 24.95 9.5 49.1 38 -4 24.9
19:20 1016 30 845 24.95 9.4 48.8 39 -4 24.8
19:25 1016 30 845 24.95 9.2 48.6 40 -3.8 25.2
19:30 1016 30 845 24.95 8.9 48.1 41 -3.5 25.6
19:35 1016 30 845 24.95 8.7 47.7 42 -3.4 25.9
19:40 1016 30 845 24.95 8.6 47.5 43 -3.3 26
19:45 1016 30 845 24.95 8.5 47.2 44 -3 26.6
19:50 1016 30 845 24.95 8.2 46.8 46 -2.8 27
19:55 1016 30 845 24.95 7.9 46.2 52 -1.3 29.6
20:00 1016 30 845 24.95 7.3 45.1 55 -1.1 30.1
20:05 1016 30 845 24.95 7 44.6 58 -0.8 30.6
20:10 1016 30 846 24.98 6.8 44.2 59 -0.8 30.6
20:15 1016 30 846 24.98 6.7 44 57 -1.3 29.7
20:20 1016 30 846 24.98 6.8 44.3 55 -1.5 29.2
20:25 1016 30 846 24.98 6.8 44.2 57 -1 30.1
20:30 1016 30 845 24.95 6.1 43 62 -0.5 31.1
20:35 1016 30 845 24.95 5.9 42.6 61 -1.1 30
20:40 1016 30 845 24.95 6.1 43.1 59 -1.2 29.8
20:45 1016 30 845 24.95 6.2 43.1 61 -0.9 30.5
20:50 1016 30 845 24.95 5.9 42.6 62 -0.9 30.4
20:55 1016 30 845 24.95 5.7 42.3 63 -0.7 30.7
21:00 1016 30 845 24.95 5.6 42.1 64 -0.7 30.8
21:05 1016 30 846 24.98 5.6 42.1 64 -0.6 30.9
21:10 1016 30 846 24.98 5.5 41.9 64 -0.6 30.8
21:15 1016 30 846 24.98 5.4 41.7 65 -0.5 31
21:20 1017 30.03 846 24.98 5.1 41.3 66 -0.7 30.8
21:25 1016 30 846 24.98 5.3 41.5 65 -0.8 30.6
21:30 1017 30.03 846 24.98 5.2 41.4 65 -0.7 30.7
21:35 1017 30.03 846 24.98 5 41 67 -0.7 30.8
21:40 1017 30.03 846 24.98 4.8 40.7 67 -0.7 30.7
21:45 1017 30.03 846 24.98 4.8 40.7 67 -0.8 30.6
21:50 1017 30.03 846 24.98 4.6 40.2 68 -0.7 30.7
21:55 1017 30.03 846 24.98 4.4 39.8 69 -0.9 30.4
22:00 1016 30 846 24.98 4.2 39.5 71 -0.7 30.7
22:05 1016 30 845 24.95 4 39.1 71 -0.8 30.6
22:10 1016 30 845 24.95 3.9 38.9 72 -0.7 30.7
22:15 1016 30 845 24.95 3.8 38.8 72 -0.8 30.6
22:20 1016 30 845 24.95 3.8 38.8 71 -1 30.2
22:25 1016 30 845 24.95 3.8 38.9 68 -1.6 29.2
22:30 1016 30 845 24.95 4 39.1 67 -1.6 29.1
22:35 1016 30 845 24.95 3.9 39 66 -1.8 28.8
22:40 1016 30 845 24.95 3.9 39 67 -1.6 29.2
22:45 1016 30 845 24.95 3.7 38.6 68 -1.7 29
22:50 1016 30 845 24.95 3.6 38.5 66 -2 28.3
22:55 1016 30 845 24.95 3.8 38.9 67 -1.8 28.8
23:00 1016 30 845 24.95 3.8 38.8 67 -1.8 28.8
23:05 1016 30 845 24.95 3.8 38.9 67 -1.7 28.9
23:10 1016 30 845 24.95 3.5 38.3 69 -1.5 29.2
23:15 1016 30 845 24.95 3.4 38.1 69 -1.7 28.9
23:20 1016 30 845 24.95 3.4 38.1 69 -1.7 28.9
23:25 1016 30 845 24.95 3.3 37.9 70 -1.6 29.1
23:30 1016 30 845 24.95 3.1 37.6 71 -1.7 28.9
23:35 1016 30 845 24.95 3.1 37.6 70 -1.8 28.7
23:40 1016 30 845 24.95 3 37.4 71 -1.7 29
23:45 1016 30 845 24.95 2.8 37 72 -1.7 28.9
23:50 1016 30 845 24.95 2.8 37.1 71 -1.9 28.6
23:55 1016 30 845 24.95 2.7 36.9 73 -1.6 29
24:00 1016 30 845 24.95 2.6 36.7 74 -1.6 29.1